createdAt,value
2019-03-24T00:00:32.069Z,34.15
2019-03-24T00:03:01.480Z,33.67
2019-03-24T00:05:30.610Z,34.73
2019-03-24T00:07:59.733Z,33.70
2019-03-24T00:10:28.883Z,34.90
2019-03-24T00:12:58.023Z,34.03
2019-03-24T00:15:27.149Z,35.50
2019-03-24T00:17:56.288Z,34.55
2019-03-24T00:20:25.404Z,36.28
2019-03-24T00:22:54.549Z,36.42
2019-03-24T00:25:24.229Z,34.53
2019-03-24T00:27:53.376Z,36.08
2019-03-24T00:30:22.489Z,32.53
2019-03-24T00:32:51.697Z,34.18
2019-03-24T00:35:20.920Z,33.38
2019-03-24T00:37:50.145Z,32.83
2019-03-24T00:40:19.256Z,33.85
2019-03-24T00:42:48.384Z,35.17
2019-03-24T00:45:17.517Z,32.30
2019-03-24T00:47:49.518Z,34.80
2019-03-24T00:50:19.869Z,35.17
2019-03-24T00:52:49.028Z,34.08
2019-03-24T00:55:18.153Z,35.52
2019-03-24T00:57:47.265Z,35.40
2019-03-24T01:00:16.397Z,35.75
2019-03-24T01:02:45.558Z,36.63
2019-03-24T01:05:14.770Z,35.15
2019-03-24T01:07:43.905Z,35.40
2019-03-24T01:10:13.037Z,36.45
2019-03-24T01:12:42.242Z,33.55
2019-03-24T01:15:11.471Z,33.33
2019-03-24T01:17:40.585Z,33.40
2019-03-24T01:20:09.726Z,34.75
2019-03-24T01:22:38.840Z,30.68
2019-03-24T01:25:07.973Z,32.55
2019-03-24T01:27:37.099Z,31.00
2019-03-24T01:30:09.219Z,32.55
2019-03-24T01:32:38.324Z,32.50
2019-03-24T01:35:07.640Z,33.10
2019-03-24T01:37:36.755Z,34.10
2019-03-24T01:40:06.471Z,35.17
2019-03-24T01:42:35.590Z,36.90
2019-03-24T01:45:09.684Z,37.35
2019-03-24T01:47:38.853Z,38.13
2019-03-24T01:50:08.174Z,37.13
2019-03-24T01:52:38.370Z,37.65
2019-03-24T01:55:08.268Z,36.17
2019-03-24T01:57:37.398Z,37.23
2019-03-24T02:00:09.406Z,37.50
2019-03-24T02:02:38.544Z,34.15
2019-03-24T02:05:08.273Z,35.88
2019-03-24T02:07:37.412Z,34.35
2019-03-24T02:10:08.216Z,34.45
2019-03-24T02:12:38.432Z,32.15
2019-03-24T02:15:09.321Z,31.50
2019-03-24T02:17:39.404Z,34.18
2019-03-24T02:20:10.262Z,35.38
2019-03-24T02:22:39.388Z,36.68
2019-03-24T02:25:08.521Z,37.35
2019-03-24T02:27:37.658Z,36.90
2019-03-24T02:30:08.331Z,37.23
2019-03-24T02:32:37.541Z,35.28
2019-03-24T02:35:06.977Z,35.05
2019-03-24T02:37:36.581Z,34.45
2019-03-24T02:40:08.587Z,33.90
2019-03-24T02:42:37.767Z,34.78
2019-03-24T02:45:07.033Z,32.78
2019-03-24T02:47:36.322Z,32.75
2019-03-24T02:50:06.864Z,34.15
2019-03-24T02:52:36.447Z,32.58
2019-03-24T02:55:06.799Z,32.55
2019-03-24T02:57:37.223Z,36.45
2019-03-24T03:00:07.685Z,33.38
2019-03-24T03:02:37.056Z,33.75
2019-03-24T03:05:07.617Z,34.03
2019-03-24T03:07:37.926Z,34.85
2019-03-24T03:10:08.578Z,35.45
2019-03-24T03:12:37.716Z,33.65
2019-03-24T03:15:07.682Z,34.65
2019-03-24T03:17:36.912Z,37.88
2019-03-24T03:20:07.640Z,36.95
2019-03-24T03:22:37.365Z,37.67
2019-03-24T03:25:07.235Z,38.20
2019-03-24T03:27:36.446Z,37.23
2019-03-24T03:30:06.709Z,35.55
2019-03-24T03:32:35.854Z,35.52
2019-03-24T03:35:07.876Z,35.35
2019-03-24T03:37:38.741Z,32.75
2019-03-24T03:40:08.042Z,34.90
2019-03-24T03:42:38.977Z,33.48
2019-03-24T03:45:09.840Z,34.63
2019-03-24T03:47:39.714Z,33.80
2019-03-24T03:50:08.910Z,34.23
2019-03-24T03:52:38.118Z,34.60
2019-03-24T03:55:07.328Z,37.50
2019-03-24T03:57:36.483Z,34.10
2019-03-24T04:00:07.297Z,34.63
2019-03-24T04:02:36.424Z,35.75
2019-03-24T04:05:06.427Z,34.33
2019-03-24T04:07:35.542Z,35.38
2019-03-24T04:10:05.955Z,37.60
2019-03-24T04:12:35.088Z,36.35
2019-03-24T04:15:07.238Z,37.78
2019-03-24T04:17:36.409Z,38.70
2019-03-24T04:20:05.830Z,38.38
2019-03-24T04:22:34.957Z,37.23
2019-03-24T04:25:05.694Z,37.78
2019-03-24T04:27:34.838Z,35.23
2019-03-24T04:30:04.827Z,35.23
2019-03-24T04:32:46.758Z,33.75
2019-03-24T04:35:15.913Z,33.18
2019-03-24T04:37:45.086Z,33.45
2019-03-24T04:40:14.222Z,36.35
2019-03-24T04:42:43.348Z,37.17
2019-03-24T04:45:12.489Z,37.85
2019-03-24T04:47:42.679Z,36.95
2019-03-24T04:50:11.818Z,36.75
2019-03-24T04:52:40.947Z,37.83
2019-03-24T04:55:10.093Z,37.98
2019-03-24T04:57:39.224Z,37.05
2019-03-24T05:00:08.855Z,35.38
2019-03-24T05:02:38.945Z,35.15
2019-03-24T05:05:08.148Z,35.35
2019-03-24T05:07:37.273Z,35.38
2019-03-24T05:10:09.677Z,33.50
2019-03-24T05:12:38.802Z,33.63
2019-03-24T05:15:07.929Z,35.38
2019-03-24T05:17:37.089Z,36.33
2019-03-24T05:20:07.278Z,37.78
2019-03-24T05:22:36.431Z,36.38
2019-03-24T05:25:05.591Z,34.03
2019-03-24T05:27:34.757Z,37.33
2019-03-24T05:30:06.122Z,35.58
2019-03-24T05:32:35.261Z,34.92
2019-03-24T05:35:08.253Z,35.35
2019-03-24T05:37:37.401Z,35.73
2019-03-24T05:40:06.530Z,34.90
2019-03-24T05:42:35.661Z,32.38
2019-03-24T05:45:06.408Z,32.40
2019-03-24T05:47:37.439Z,34.58
2019-03-24T05:50:09.052Z,33.75
2019-03-24T05:52:38.191Z,32.33
2019-03-24T05:55:07.507Z,31.35
2019-03-24T05:57:36.641Z,33.40
2019-03-24T06:00:07.209Z,34.33
2019-03-24T06:02:36.405Z,33.80
2019-03-24T06:05:06.102Z,32.28
2019-03-24T06:07:35.220Z,33.13
2019-03-24T06:10:06.553Z,34.05
2019-03-24T06:12:35.705Z,34.70
2019-03-24T06:15:07.661Z,33.55
2019-03-24T06:17:47.181Z,36.63
2019-03-24T06:20:07.668Z,35.03
2019-03-24T06:22:36.790Z,35.40
2019-03-24T06:25:06.821Z,38.40
2019-03-24T06:27:35.942Z,39.20
2019-03-24T06:30:06.970Z,38.83
2019-03-24T06:32:36.242Z,38.90
2019-03-24T06:35:06.486Z,36.42
2019-03-24T06:37:36.100Z,36.83
2019-03-24T06:40:06.620Z,39.92
2019-03-24T06:42:35.822Z,42.10
2019-03-24T06:45:06.716Z,40.20
2019-03-24T06:47:36.880Z,40.30
2019-03-24T06:50:09.086Z,42.03
2019-03-24T06:52:38.215Z,43.28
2019-03-24T06:55:07.371Z,40.38
2019-03-24T06:57:39.825Z,43.85
2019-03-24T07:00:10.202Z,43.17
2019-03-24T07:02:39.341Z,44.63
2019-03-24T07:05:08.485Z,42.85
2019-03-24T07:07:37.605Z,43.92
2019-03-24T07:10:07.993Z,42.43
2019-03-24T07:12:38.194Z,42.90
2019-03-24T07:15:08.473Z,45.95
2019-03-24T07:17:37.808Z,46.28
2019-03-24T07:20:08.322Z,44.27
2019-03-24T07:22:37.464Z,46.60
2019-03-24T07:25:06.959Z,46.15
2019-03-24T07:27:36.099Z,47.20
2019-03-24T07:30:09.185Z,47.48
2019-03-24T07:32:38.433Z,44.77
2019-03-24T07:35:07.556Z,45.98
2019-03-24T07:37:36.844Z,47.48
2019-03-24T07:40:07.529Z,47.95
2019-03-24T07:42:36.684Z,48.23
2019-03-24T07:45:06.946Z,49.48
2019-03-24T07:47:36.084Z,47.88
2019-03-24T07:50:07.448Z,46.10
2019-03-24T07:52:36.649Z,46.33
2019-03-24T07:55:06.856Z,49.55
2019-03-24T07:57:36.012Z,50.40
2019-03-24T08:00:06.973Z,49.48
2019-03-24T08:02:36.124Z,48.55
2019-03-24T08:05:05.464Z,48.40
2019-03-24T08:07:34.694Z,49.53
2019-03-24T08:10:06.129Z,47.50
2019-03-24T08:12:35.336Z,46.55
2019-03-24T08:15:05.427Z,45.23
2019-03-24T08:17:34.579Z,41.70
2019-03-24T08:20:05.145Z,40.50
2019-03-24T08:22:34.315Z,41.15
2019-03-24T08:25:03.812Z,40.30
2019-03-24T08:27:32.953Z,39.25
2019-03-24T08:30:02.089Z,37.85
2019-03-24T08:32:32.312Z,40.63
2019-03-24T08:35:01.461Z,38.75
2019-03-24T08:37:30.580Z,38.88
2019-03-24T08:39:59.736Z,38.95
2019-03-24T08:42:29.918Z,40.15
2019-03-24T08:44:59.121Z,39.98
2019-03-24T08:47:28.242Z,40.38
2019-03-24T08:49:57.403Z,38.08
2019-03-24T08:52:26.544Z,38.95
2019-03-24T08:54:55.676Z,38.50
2019-03-24T08:57:24.828Z,38.90
2019-03-24T08:59:54.054Z,40.63
2019-03-24T09:02:23.230Z,40.58
2019-03-24T09:04:52.399Z,40.48
2019-03-24T09:07:21.529Z,36.70
2019-03-24T09:10:15.161Z,41.25
2019-03-24T09:12:44.290Z,40.70
2019-03-24T09:15:13.446Z,39.18
2019-03-24T09:17:42.608Z,39.78
2019-03-24T09:20:11.837Z,40.38
2019-03-24T09:22:40.965Z,38.70
2019-03-24T09:25:10.113Z,40.30
2019-03-24T09:27:39.266Z,40.28
2019-03-24T09:30:14.226Z,41.95
2019-03-24T09:32:43.366Z,39.42
2019-03-24T09:35:12.568Z,41.15
2019-03-24T09:37:41.710Z,41.05
2019-03-24T09:40:15.089Z,40.08
2019-03-24T09:42:45.248Z,39.63
2019-03-24T09:45:14.410Z,42.13
2019-03-24T09:47:43.540Z,42.08
2019-03-24T09:50:13.375Z,38.58
2019-03-24T09:52:42.686Z,40.43
2019-03-24T09:55:11.822Z,39.83
2019-03-24T09:57:42.043Z,41.70
2019-03-24T10:00:11.180Z,40.03
2019-03-24T10:02:40.360Z,41.18
2019-03-24T10:05:09.625Z,39.98
2019-03-24T10:07:38.845Z,41.18
2019-03-24T10:10:09.247Z,41.75
2019-03-24T10:12:38.417Z,40.88
2019-03-24T10:15:07.591Z,42.00
2019-03-24T10:17:36.816Z,42.13
2019-03-24T10:20:06.041Z,41.77
2019-03-24T10:22:35.232Z,41.10
2019-03-24T10:25:06.401Z,40.30
2019-03-24T10:27:35.567Z,39.58
2019-03-24T10:30:08.425Z,39.40
2019-03-24T10:32:38.851Z,40.03
2019-03-24T10:35:08.626Z,40.12
2019-03-24T10:37:37.950Z,40.23
2019-03-24T10:40:07.372Z,38.83
2019-03-24T10:42:37.180Z,39.50
2019-03-24T10:45:06.913Z,40.30
2019-03-24T10:47:37.197Z,42.50
2019-03-24T10:50:10.323Z,41.75
2019-03-24T10:52:39.471Z,40.17
2019-03-24T10:55:09.753Z,40.70
2019-03-24T10:57:39.169Z,38.98
2019-03-24T11:00:11.172Z,40.58
2019-03-24T11:02:40.442Z,40.43
2019-03-24T11:05:09.651Z,39.63
2019-03-24T11:07:38.783Z,37.95
2019-03-24T11:10:08.197Z,39.15
2019-03-24T11:12:37.341Z,39.08
2019-03-24T11:15:08.915Z,40.75
2019-03-24T11:17:38.213Z,40.05
2019-03-24T11:20:07.379Z,39.38
2019-03-24T11:22:36.537Z,40.48
2019-03-24T11:25:09.014Z,39.88
2019-03-24T11:27:38.338Z,41.10
2019-03-24T11:30:09.898Z,39.88
2019-03-24T11:32:39.366Z,39.63
2019-03-24T11:35:08.718Z,40.10
2019-03-24T11:37:37.845Z,38.80
2019-03-24T11:40:08.262Z,39.98
2019-03-24T11:42:37.460Z,37.65
2019-03-24T11:45:07.872Z,38.25
2019-03-24T11:47:37.002Z,38.92
2019-03-24T11:50:07.900Z,39.38
2019-03-24T11:52:37.487Z,39.00
2019-03-24T11:55:09.457Z,38.10
2019-03-24T11:57:38.609Z,38.02
2019-03-24T12:00:11.054Z,40.52
2019-03-24T12:02:40.299Z,40.60
2019-03-24T12:05:09.453Z,39.80
2019-03-24T12:07:38.595Z,38.65
2019-03-24T12:10:08.313Z,40.43
2019-03-24T12:12:37.499Z,41.75
2019-03-24T12:15:06.984Z,39.98
2019-03-24T12:17:36.154Z,40.43
2019-03-24T12:20:07.023Z,39.13
2019-03-24T12:22:36.219Z,40.05
2019-03-24T12:25:05.413Z,40.00
2019-03-24T12:27:34.709Z,40.58
2019-03-24T12:30:06.078Z,41.28
2019-03-24T12:32:35.248Z,42.10
2019-03-24T12:35:07.652Z,43.00
2019-03-24T12:37:36.810Z,41.23
2019-03-24T12:40:07.091Z,40.50
2019-03-24T12:42:36.241Z,39.42
2019-03-24T12:45:07.162Z,42.08
2019-03-24T12:47:36.341Z,40.95
2019-03-24T12:50:09.176Z,40.12
2019-03-24T12:52:37.602Z,40.08
2019-03-24T12:55:07.041Z,38.75
2019-03-24T12:57:36.295Z,39.42
2019-03-24T13:00:07.772Z,38.63
2019-03-24T13:02:37.053Z,40.20
2019-03-24T13:05:08.161Z,40.20
2019-03-24T13:07:38.303Z,40.05
2019-03-24T13:10:07.622Z,40.67
2019-03-24T13:12:36.946Z,42.93
2019-03-24T13:15:07.105Z,43.30
2019-03-24T13:17:36.276Z,40.15
2019-03-24T13:20:06.510Z,41.53
2019-03-24T13:22:35.728Z,41.63
2019-03-24T13:25:07.925Z,39.70
2019-03-24T13:27:37.079Z,39.90
2019-03-24T13:30:06.719Z,41.28
2019-03-24T13:32:35.895Z,40.23
2019-03-24T13:35:05.293Z,40.88
2019-03-24T13:37:34.425Z,41.75
2019-03-24T13:40:03.718Z,41.65
2019-03-24T13:42:32.856Z,40.15
2019-03-24T13:45:02.032Z,39.60
2019-03-24T13:47:50.667Z,38.70
2019-03-24T13:50:30.747Z,41.55
2019-03-24T13:52:50.658Z,41.42
2019-03-24T13:55:19.885Z,38.08
2019-03-24T13:57:49.025Z,39.90
2019-03-24T14:00:19.247Z,39.45
2019-03-24T14:02:48.392Z,38.50
2019-03-24T14:05:17.565Z,38.02
2019-03-24T14:07:46.721Z,36.90
2019-03-24T14:10:15.864Z,38.15
2019-03-24T14:12:45.030Z,36.75
2019-03-24T14:15:14.193Z,37.50
2019-03-24T14:17:43.305Z,35.75
2019-03-24T14:20:12.465Z,38.33
2019-03-24T14:22:41.793Z,36.83
2019-03-24T14:25:11.017Z,35.90
2019-03-24T14:27:40.153Z,36.70
2019-03-24T14:30:09.289Z,36.70
2019-03-24T14:32:38.454Z,36.35
2019-03-24T14:35:08.160Z,33.95
2019-03-24T14:37:37.430Z,35.48
2019-03-24T14:40:07.548Z,37.28
2019-03-24T14:42:36.705Z,37.70
2019-03-24T14:45:07.377Z,37.08
2019-03-24T14:47:36.834Z,35.98
2019-03-24T14:50:07.737Z,35.58
2019-03-24T14:52:36.897Z,35.28
2019-03-24T14:55:06.141Z,35.98
2019-03-24T14:57:36.367Z,34.67
2019-03-24T15:00:06.928Z,35.85
2019-03-24T15:02:36.349Z,36.88
2019-03-24T15:05:07.098Z,35.60
2019-03-24T15:07:36.309Z,36.38
2019-03-24T15:10:06.530Z,35.70
2019-03-24T15:12:35.676Z,35.55
2019-03-24T15:15:07.440Z,36.58
2019-03-24T15:17:36.844Z,34.45
2019-03-24T15:20:06.919Z,36.83
2019-03-24T15:22:36.067Z,36.80
2019-03-24T15:25:06.167Z,35.28
2019-03-24T15:27:35.304Z,38.42
2019-03-24T15:30:09.185Z,35.03
2019-03-24T15:32:39.991Z,35.03
2019-03-24T15:35:09.941Z,36.52
2019-03-24T15:37:39.191Z,35.80
2019-03-24T15:40:08.334Z,36.83
2019-03-24T15:42:37.481Z,35.75
2019-03-24T15:45:07.191Z,35.55
2019-03-24T15:47:37.390Z,36.30
2019-03-24T15:50:07.572Z,36.05
2019-03-24T15:52:36.741Z,34.88
2019-03-24T15:55:06.705Z,35.83
2019-03-24T15:57:35.968Z,37.15
2019-03-24T16:00:06.473Z,35.65
2019-03-24T16:02:35.668Z,38.25
2019-03-24T16:05:05.915Z,38.00
2019-03-24T16:07:35.126Z,36.73
2019-03-24T16:10:06.420Z,36.83
2019-03-24T16:12:35.555Z,36.85
2019-03-24T16:15:06.849Z,36.98
2019-03-24T16:17:36.000Z,37.90
2019-03-24T16:20:06.801Z,37.13
2019-03-24T16:22:35.969Z,38.50
2019-03-24T16:25:07.053Z,39.75
2019-03-24T16:27:36.245Z,37.35
2019-03-24T16:30:06.565Z,37.10
2019-03-24T16:32:35.736Z,36.93
2019-03-24T16:35:05.681Z,37.80
2019-03-24T16:37:34.812Z,35.20
2019-03-24T16:40:08.365Z,34.63
2019-03-24T16:42:38.594Z,36.53
2019-03-24T16:45:07.751Z,35.58
2019-03-24T16:47:36.882Z,34.85
2019-03-24T16:50:06.889Z,36.38
2019-03-24T16:52:36.044Z,38.80
2019-03-24T16:55:07.900Z,37.70
2019-03-24T16:57:37.050Z,35.17
2019-03-24T17:00:09.164Z,33.38
2019-03-24T17:02:38.280Z,34.75
2019-03-24T17:05:07.628Z,35.20
2019-03-24T17:07:36.871Z,33.90
2019-03-24T17:10:07.482Z,33.38
2019-03-24T17:12:36.683Z,34.08
2019-03-24T17:15:07.274Z,34.45
2019-03-24T17:17:36.502Z,33.53
2019-03-24T17:20:07.466Z,33.70
2019-03-24T17:22:36.781Z,32.20
2019-03-24T17:25:06.203Z,33.25
2019-03-24T17:27:35.367Z,32.20
2019-03-24T17:30:10.080Z,32.95
2019-03-24T17:32:39.389Z,32.08
2019-03-24T17:35:08.605Z,32.63
2019-03-24T17:37:37.724Z,32.67
2019-03-24T17:40:07.943Z,30.50
2019-03-24T17:42:37.084Z,31.60
2019-03-24T17:45:07.857Z,30.52
2019-03-24T17:47:37.271Z,30.40
2019-03-24T17:50:06.839Z,30.97
2019-03-24T17:52:36.162Z,29.85
2019-03-24T17:55:05.442Z,28.98
2019-03-24T17:57:34.817Z,28.75
2019-03-24T18:00:13.593Z,29.15
2019-03-24T18:02:42.941Z,28.77
2019-03-24T18:05:12.208Z,28.42
2019-03-24T18:07:41.338Z,27.58
2019-03-24T18:10:10.750Z,27.05
2019-03-24T18:12:39.925Z,27.75
2019-03-24T18:15:09.693Z,27.05
2019-03-24T18:17:38.929Z,26.42
2019-03-24T18:20:09.134Z,25.60
2019-03-24T18:22:38.268Z,26.70
2019-03-24T18:25:11.224Z,25.95
2019-03-24T18:27:40.492Z,26.27
2019-03-24T18:30:10.568Z,26.30
2019-03-24T18:32:39.796Z,25.43
2019-03-24T18:35:09.035Z,24.07
2019-03-24T18:37:39.371Z,23.67
2019-03-24T18:40:08.557Z,24.60
2019-03-24T18:42:38.126Z,24.60
2019-03-24T18:45:10.837Z,22.70
2019-03-24T18:47:40.105Z,23.07
2019-03-24T18:50:10.038Z,22.42
2019-03-24T18:52:39.232Z,23.47
2019-03-24T18:55:08.791Z,22.37
2019-03-24T18:57:38.049Z,22.82
2019-03-24T19:00:07.730Z,23.60
2019-03-24T19:02:36.885Z,22.27
2019-03-24T19:05:07.213Z,22.58
2019-03-24T19:07:36.412Z,22.58
2019-03-24T19:10:07.746Z,22.50
2019-03-24T19:12:37.341Z,23.50
2019-03-24T19:15:07.237Z,23.27
2019-03-24T19:17:36.669Z,21.77
2019-03-24T19:20:06.389Z,22.05
2019-03-24T19:22:35.621Z,22.30
2019-03-24T19:25:07.529Z,23.07
2019-03-24T19:27:36.799Z,27.93
2019-03-24T19:30:08.929Z,21.75
2019-03-24T19:32:38.114Z,22.42
2019-03-24T19:35:07.357Z,22.02
2019-03-24T19:37:36.840Z,20.85
2019-03-24T19:40:08.624Z,25.20
2019-03-24T19:42:38.065Z,20.52
2019-03-24T19:45:07.210Z,21.50
2019-03-24T19:47:36.591Z,20.65
2019-03-24T19:50:06.510Z,21.17
2019-03-24T19:52:44.388Z,20.65
2019-03-24T19:55:06.941Z,19.17
2019-03-24T19:57:36.111Z,19.57
2019-03-24T20:00:08.255Z,19.55
2019-03-24T20:02:39.175Z,18.32
2019-03-24T20:05:08.329Z,16.00
2019-03-24T20:07:50.399Z,16.25
2019-03-24T20:10:19.554Z,16.52
2019-03-24T20:12:48.850Z,17.40
2019-03-24T20:15:18.176Z,16.85
2019-03-24T20:17:47.463Z,16.97
2019-03-24T20:20:16.588Z,16.45
2019-03-24T20:22:56.005Z,15.48
2019-03-24T20:25:16.696Z,15.43
2019-03-24T20:27:45.919Z,15.45
2019-03-24T20:30:15.654Z,18.45
2019-03-24T20:32:44.866Z,16.12
2019-03-24T20:35:14.105Z,15.93
2019-03-24T20:37:43.346Z,16.42
2019-03-24T20:40:12.477Z,16.02
2019-03-24T20:42:41.656Z,14.45
2019-03-24T20:45:10.867Z,14.63
2019-03-24T20:47:40.038Z,14.35
2019-03-24T20:50:09.977Z,16.60
2019-03-24T20:52:39.196Z,17.80
2019-03-24T20:55:08.346Z,17.40
2019-03-24T20:57:37.561Z,18.30
2019-03-24T21:00:07.504Z,16.87
2019-03-24T21:02:38.259Z,16.52
2019-03-24T21:05:07.563Z,17.73
2019-03-24T21:07:36.900Z,19.30
2019-03-24T21:10:07.081Z,19.75
2019-03-24T21:12:36.566Z,21.60
2019-03-24T21:15:11.184Z,20.77
2019-03-24T21:17:39.344Z,20.05
2019-03-24T21:20:08.552Z,21.68
2019-03-24T21:22:37.741Z,22.30
2019-03-24T21:25:06.936Z,21.27
2019-03-24T21:27:36.223Z,21.87
2019-03-24T21:30:07.026Z,21.12
2019-03-24T21:32:36.430Z,22.48
2019-03-24T21:35:07.211Z,21.90
2019-03-24T21:37:37.420Z,21.97
2019-03-24T21:40:06.752Z,23.12
2019-03-24T21:42:36.141Z,22.98
2019-03-24T21:45:06.994Z,22.93
2019-03-24T21:47:36.112Z,22.55
2019-03-24T21:50:06.521Z,22.07
2019-03-24T21:52:35.672Z,21.90
2019-03-24T21:55:05.644Z,23.05
2019-03-24T21:57:35.731Z,24.82
2019-03-24T22:00:07.540Z,23.27
2019-03-24T22:02:37.267Z,22.48
2019-03-24T22:05:06.413Z,23.35
2019-03-24T22:07:35.573Z,23.42
2019-03-24T22:10:07.574Z,22.13
2019-03-24T22:12:36.721Z,23.42
2019-03-24T22:15:09.115Z,22.55
2019-03-24T22:17:38.260Z,23.57
2019-03-24T22:20:07.870Z,22.82
2019-03-24T22:22:37.000Z,22.42
2019-03-24T22:25:06.132Z,22.55
2019-03-24T22:27:35.290Z,22.60
2019-03-24T22:30:06.977Z,23.52
2019-03-24T22:32:36.169Z,23.32
2019-03-24T22:35:06.426Z,22.35
2019-03-24T22:37:35.603Z,21.95
2019-03-24T22:40:06.616Z,20.68
2019-03-24T22:42:35.753Z,21.60
2019-03-24T22:45:05.780Z,19.07
2019-03-24T22:47:34.926Z,18.35
2019-03-24T22:50:07.184Z,17.32
2019-03-24T22:52:36.330Z,15.68
2019-03-24T22:55:06.619Z,16.23
2019-03-24T22:57:35.736Z,14.55
2019-03-24T23:00:08.553Z,14.73
2019-03-24T23:02:39.286Z,16.27
2019-03-24T23:05:08.417Z,14.53
2019-03-24T23:07:37.548Z,15.40
2019-03-24T23:10:07.834Z,15.48
2019-03-24T23:12:36.950Z,17.50
2019-03-24T23:15:06.967Z,14.83
2019-03-24T23:17:36.096Z,15.18
2019-03-24T23:20:06.392Z,16.15
2019-03-24T23:22:35.505Z,16.82
2019-03-24T23:25:06.777Z,16.67
2019-03-24T23:27:35.897Z,15.95
2019-03-24T23:30:08.472Z,16.32
2019-03-24T23:32:37.593Z,16.07
2019-03-24T23:35:07.008Z,14.53
2019-03-24T23:37:37.613Z,15.90
2019-03-24T23:40:07.217Z,14.10
2019-03-24T23:42:36.341Z,13.18
2019-03-24T23:45:07.449Z,13.32
2019-03-24T23:47:36.593Z,12.37
2019-03-24T23:50:08.927Z,12.65
2019-03-24T23:52:38.053Z,14.03
2019-03-24T23:55:07.457Z,11.12
2019-03-24T23:57:36.615Z,10.48
